sensor_id;sensor_type;location;lat;lon;timestamp;pressure;altitude;pressure_sealevel;temperature;humidity
20612;BME280;10465;42.686;23.364;2023-05-23T00:01:20;94866.00;;;15.02;98.26
20612;BME280;10465;42.686;23.364;2023-05-23T00:03:47;94847.69;;;15.00;98.74
20612;BME280;10465;42.686;23.364;2023-05-23T00:06:13;94866.56;;;15.07;98.95
20612;BME280;10465;42.686;23.364;2023-05-23T00:08:39;94852.66;;;14.90;99.40
20612;BME280;10465;42.686;23.364;2023-05-23T00:11:05;94854.13;;;14.87;99.28
20612;BME280;10465;42.686;23.364;2023-05-23T00:13:30;94829.44;;;14.66;99.90
20612;BME280;10465;42.686;23.364;2023-05-23T00:15:59;94857.88;;;14.86;100.00
20612;BME280;10465;42.686;23.364;2023-05-23T00:18:24;94860.31;;;14.79;100.00
20612;BME280;10465;42.686;23.364;2023-05-23T00:20:50;94864.63;;;14.59;100.00
20612;BME280;10465;42.686;23.364;2023-05-23T00:23:16;94845.00;;;14.43;100.00
20612;BME280;10465;42.686;23.364;2023-05-23T00:25:46;94862.25;;;14.57;100.00
20612;BME280;10465;42.686;23.364;2023-05-23T00:28:17;94865.50;;;14.51;100.00
20612;BME280;10465;42.686;23.364;2023-05-23T00:30:43;94843.44;;;14.42;100.00
20612;BME280;10465;42.686;23.364;2023-05-23T00:33:08;94857.81;;;14.49;100.00
20612;BME280;10465;42.686;23.364;2023-05-23T00:35:34;94855.91;;;14.50;99.99
20612;BME280;10465;42.686;23.364;2023-05-23T00:37:59;94855.59;;;14.51;99.93
20612;BME280;10465;42.686;23.364;2023-05-23T00:40:26;94862.34;;;14.49;100.00
20612;BME280;10465;42.686;23.364;2023-05-23T00:42:52;94861.06;;;14.55;100.00
20612;BME280;10465;42.686;23.364;2023-05-23T00:45:17;94854.09;;;14.63;99.65
20612;BME280;10465;42.686;23.364;2023-05-23T00:47:43;94847.31;;;14.65;98.89
20612;BME280;10465;42.686;23.364;2023-05-23T00:50:14;94855.38;;;14.56;98.77
20612;BME280;10465;42.686;23.364;2023-05-23T00:52:41;94857.06;;;14.61;97.79
20612;BME280;10465;42.686;23.364;2023-05-23T00:55:07;94837.22;;;14.38;98.35
20612;BME280;10465;42.686;23.364;2023-05-23T00:57:34;94813.47;;;14.32;97.96
20612;BME280;10465;42.686;23.364;2023-05-23T01:00:08;94859.81;;;14.52;98.45
20612;BME280;10465;42.686;23.364;2023-05-23T01:02:42;94839.75;;;14.34;97.95
20612;BME280;10465;42.686;23.364;2023-05-23T01:05:13;94866.69;;;14.53;97.37
20612;BME280;10465;42.686;23.364;2023-05-23T01:07:42;94874.31;;;14.43;96.77
20612;BME280;10465;42.686;23.364;2023-05-23T01:10:08;94865.28;;;14.35;96.78
20612;BME280;10465;42.686;23.364;2023-05-23T01:15:15;94844.13;;;14.18;98.38
20612;BME280;10465;42.686;23.364;2023-05-23T01:18:00;94857.50;;;14.30;99.56
20612;BME280;10465;42.686;23.364;2023-05-23T01:20:33;94850.06;;;14.23;99.99
20612;BME280;10465;42.686;23.364;2023-05-23T01:23:12;94844.94;;;14.18;100.00
20612;BME280;10465;42.686;23.364;2023-05-23T01:28:28;94866.53;;;14.17;99.59
20612;BME280;10465;42.686;23.364;2023-05-23T01:30:57;94854.09;;;14.08;99.42
20612;BME280;10465;42.686;23.364;2023-05-23T01:33:26;94848.28;;;13.94;100.00
20612;BME280;10465;42.686;23.364;2023-05-23T01:35:55;94848.28;;;13.94;100.00
20612;BME280;10465;42.686;23.364;2023-05-23T01:38:21;94863.41;;;14.02;100.00
20612;BME280;10465;42.686;23.364;2023-05-23T01:40:46;94861.31;;;14.08;100.00
20612;BME280;10465;42.686;23.364;2023-05-23T01:43:11;94845.75;;;13.98;100.00
20612;BME280;10465;42.686;23.364;2023-05-23T01:45:37;94828.53;;;13.95;100.00
20612;BME280;10465;42.686;23.364;2023-05-23T01:48:03;94835.25;;;14.14;100.00
20612;BME280;10465;42.686;23.364;2023-05-23T01:50:31;94831.38;;;14.11;100.00
20612;BME280;10465;42.686;23.364;2023-05-23T01:52:56;94851.81;;;14.19;100.00
20612;BME280;10465;42.686;23.364;2023-05-23T01:55:24;94848.03;;;14.20;100.00
20612;BME280;10465;42.686;23.364;2023-05-23T01:57:51;94833.50;;;14.18;100.00
20612;BME280;10465;42.686;23.364;2023-05-23T02:00:17;94827.94;;;14.10;100.00
20612;BME280;10465;42.686;23.364;2023-05-23T02:02:43;94852.72;;;14.23;100.00
20612;BME280;10465;42.686;23.364;2023-05-23T02:05:09;94831.59;;;14.06;100.00
20612;BME280;10465;42.686;23.364;2023-05-23T02:07:35;94852.13;;;14.18;100.00
20612;BME280;10465;42.686;23.364;2023-05-23T02:10:02;94852.41;;;14.04;100.00
20612;BME280;10465;42.686;23.364;2023-05-23T02:12:27;94850.66;;;14.08;100.00
20612;BME280;10465;42.686;23.364;2023-05-23T02:14:53;94838.19;;;14.00;100.00
20612;BME280;10465;42.686;23.364;2023-05-23T02:17:19;94827.75;;;13.95;100.00
20612;BME280;10465;42.686;23.364;2023-05-23T02:19:46;94835.41;;;13.96;100.00
20612;BME280;10465;42.686;23.364;2023-05-23T02:22:12;94857.88;;;14.07;100.00
20612;BME280;10465;42.686;23.364;2023-05-23T02:24:38;94854.56;;;14.10;100.00
20612;BME280;10465;42.686;23.364;2023-05-23T02:27:04;94823.44;;;13.90;100.00
20612;BME280;10465;42.686;23.364;2023-05-23T02:29:29;94842.63;;;13.96;100.00
20612;BME280;10465;42.686;23.364;2023-05-23T02:31:55;94852.81;;;13.94;100.00
20612;BME280;10465;42.686;23.364;2023-05-23T02:34:20;94824.06;;;13.87;100.00
20612;BME280;10465;42.686;23.364;2023-05-23T02:36:46;94849.22;;;14.10;100.00
20612;BME280;10465;42.686;23.364;2023-05-23T02:39:11;94833.34;;;14.02;100.00
20612;BME280;10465;42.686;23.364;2023-05-23T02:41:37;94842.41;;;14.01;100.00
20612;BME280;10465;42.686;23.364;2023-05-23T02:44:02;94841.91;;;14.07;100.00
20612;BME280;10465;42.686;23.364;2023-05-23T02:46:28;94839.25;;;14.07;100.00
20612;BME280;10465;42.686;23.364;2023-05-23T02:48:53;94824.47;;;13.98;100.00
20612;BME280;10465;42.686;23.364;2023-05-23T02:51:19;94820.22;;;13.97;100.00
20612;BME280;10465;42.686;23.364;2023-05-23T02:53:45;94847.59;;;13.97;100.00
20612;BME280;10465;42.686;23.364;2023-05-23T02:56:11;94805.66;;;13.82;100.00
20612;BME280;10465;42.686;23.364;2023-05-23T02:58:37;94805.19;;;13.80;99.78
20612;BME280;10465;42.686;23.364;2023-05-23T03:01:04;94847.34;;;14.11;99.08
20612;BME280;10465;42.686;23.364;2023-05-23T03:03:30;94843.66;;;14.03;98.87
20612;BME280;10465;42.686;23.364;2023-05-23T03:05:59;94842.25;;;14.06;98.19
20612;BME280;10465;42.686;23.364;2023-05-23T03:08:24;94841.38;;;13.93;97.91
20612;BME280;10465;42.686;23.364;2023-05-23T03:10:50;94824.72;;;13.84;98.00
20612;BME280;10465;42.686;23.364;2023-05-23T03:13:16;94817.28;;;13.77;96.71
20612;BME280;10465;42.686;23.364;2023-05-23T03:15:42;94842.97;;;13.94;96.68
20612;BME280;10465;42.686;23.364;2023-05-23T03:18:08;94839.34;;;13.78;96.68
20612;BME280;10465;42.686;23.364;2023-05-23T03:20:33;94843.63;;;13.70;96.39
20612;BME280;10465;42.686;23.364;2023-05-23T03:22:59;94851.66;;;13.62;96.79
20612;BME280;10465;42.686;23.364;2023-05-23T03:25:24;94850.56;;;13.63;96.50
20612;BME280;10465;42.686;23.364;2023-05-23T03:27:50;94855.41;;;13.60;96.60
20612;BME280;10465;42.686;23.364;2023-05-23T03:30:16;94816.34;;;13.31;96.26
20612;BME280;10465;42.686;23.364;2023-05-23T03:32:41;94865.06;;;13.44;96.63
20612;BME280;10465;42.686;23.364;2023-05-23T03:35:07;94860.66;;;13.48;96.64
20612;BME280;10465;42.686;23.364;2023-05-23T03:37:33;94858.19;;;13.43;95.80
20612;BME280;10465;42.686;23.364;2023-05-23T03:39:58;94848.03;;;13.36;96.24
20612;BME280;10465;42.686;23.364;2023-05-23T03:42:23;94870.84;;;13.46;95.41
20612;BME280;10465;42.686;23.364;2023-05-23T03:44:49;94850.41;;;13.38;94.85
20612;BME280;10465;42.686;23.364;2023-05-23T03:47:14;94866.78;;;13.40;95.13
20612;BME280;10465;42.686;23.364;2023-05-23T03:49:40;94871.41;;;13.52;95.02
20612;BME280;10465;42.686;23.364;2023-05-23T03:52:05;94872.19;;;13.52;95.26
20612;BME280;10465;42.686;23.364;2023-05-23T03:54:31;94881.88;;;13.57;95.52
20612;BME280;10465;42.686;23.364;2023-05-23T03:56:56;94879.03;;;13.62;95.80
20612;BME280;10465;42.686;23.364;2023-05-23T03:59:22;94874.34;;;13.59;95.68
20612;BME280;10465;42.686;23.364;2023-05-23T04:01:47;94871.34;;;13.60;95.56
20612;BME280;10465;42.686;23.364;2023-05-23T04:04:12;94886.81;;;13.67;95.53
20612;BME280;10465;42.686;23.364;2023-05-23T04:06:38;94879.75;;;13.71;95.20
20612;BME280;10465;42.686;23.364;2023-05-23T04:09:03;94874.75;;;13.70;95.56
20612;BME280;10465;42.686;23.364;2023-05-23T04:11:30;94866.91;;;13.73;95.47
20612;BME280;10465;42.686;23.364;2023-05-23T04:13:55;94865.03;;;13.74;95.27
20612;BME280;10465;42.686;23.364;2023-05-23T04:16:21;94863.41;;;13.81;95.17
20612;BME280;10465;42.686;23.364;2023-05-23T04:18:48;94868.84;;;13.85;95.30
20612;BME280;10465;42.686;23.364;2023-05-23T04:21:14;94856.00;;;13.87;94.57
20612;BME280;10465;42.686;23.364;2023-05-23T04:23:40;94847.13;;;13.83;95.04
20612;BME280;10465;42.686;23.364;2023-05-23T04:26:05;94855.34;;;13.90;94.96
20612;BME280;10465;42.686;23.364;2023-05-23T04:28:33;94855.41;;;14.02;96.14
20612;BME280;10465;42.686;23.364;2023-05-23T04:30:58;94875.00;;;14.19;98.51
20612;BME280;10465;42.686;23.364;2023-05-23T04:33:26;94872.34;;;14.19;97.58
20612;BME280;10465;42.686;23.364;2023-05-23T04:35:52;94872.66;;;14.17;97.44
20612;BME280;10465;42.686;23.364;2023-05-23T04:38:17;94872.66;;;14.17;96.31
20612;BME280;10465;42.686;23.364;2023-05-23T04:40:43;94872.59;;;14.05;95.50
20612;BME280;10465;42.686;23.364;2023-05-23T04:43:08;94880.72;;;14.08;94.99
20612;BME280;10465;42.686;23.364;2023-05-23T04:45:34;94862.22;;;13.91;94.78
20612;BME280;10465;42.686;23.364;2023-05-23T04:48:01;94883.72;;;14.07;95.61
20612;BME280;10465;42.686;23.364;2023-05-23T04:50:29;94852.88;;;13.85;96.07
20612;BME280;10465;42.686;23.364;2023-05-23T04:52:57;94892.00;;;14.05;96.12
20612;BME280;10465;42.686;23.364;2023-05-23T04:55:22;94875.81;;;13.98;96.51
20612;BME280;10465;42.686;23.364;2023-05-23T04:57:48;94857.13;;;13.86;96.07
20612;BME280;10465;42.686;23.364;2023-05-23T05:00:14;94871.56;;;13.97;96.29
20612;BME280;10465;42.686;23.364;2023-05-23T05:02:40;94872.59;;;14.05;96.01
20612;BME280;10465;42.686;23.364;2023-05-23T05:05:06;94899.72;;;14.19;95.44
20612;BME280;10465;42.686;23.364;2023-05-23T05:07:32;94879.38;;;14.02;95.61
20612;BME280;10465;42.686;23.364;2023-05-23T05:09:59;94907.72;;;14.19;95.91
20612;BME280;10465;42.686;23.364;2023-05-23T05:12:25;94888.44;;;14.01;96.92
20612;BME280;10465;42.686;23.364;2023-05-23T05:14:51;94911.59;;;14.22;97.94
20612;BME280;10465;42.686;23.364;2023-05-23T05:17:16;94899.28;;;14.17;98.46
20612;BME280;10465;42.686;23.364;2023-05-23T05:19:45;94870.91;;;14.00;98.75
20612;BME280;10465;42.686;23.364;2023-05-23T05:22:11;94892.13;;;14.09;99.89
20612;BME280;10465;42.686;23.364;2023-05-23T05:24:37;94910.38;;;14.19;100.00
20612;BME280;10465;42.686;23.364;2023-05-23T05:27:06;94904.59;;;14.17;100.00
20612;BME280;10465;42.686;23.364;2023-05-23T05:29:33;94905.69;;;14.16;100.00
20612;BME280;10465;42.686;23.364;2023-05-23T05:31:59;94902.28;;;14.16;100.00
20612;BME280;10465;42.686;23.364;2023-05-23T05:34:27;94907.03;;;14.10;100.00
20612;BME280;10465;42.686;23.364;2023-05-23T05:36:53;94884.88;;;13.97;100.00
20612;BME280;10465;42.686;23.364;2023-05-23T05:39:23;94905.13;;;14.10;100.00
20612;BME280;10465;42.686;23.364;2023-05-23T05:41:49;94894.16;;;14.12;100.00
20612;BME280;10465;42.686;23.364;2023-05-23T05:44:15;94913.19;;;14.23;100.00
20612;BME280;10465;42.686;23.364;2023-05-23T05:46:40;94912.72;;;14.21;100.00
20612;BME280;10465;42.686;23.364;2023-05-23T05:49:07;94893.03;;;14.13;100.00
20612;BME280;10465;42.686;23.364;2023-05-23T05:51:33;94913.94;;;14.23;100.00
20612;BME280;10465;42.686;23.364;2023-05-23T05:53:58;94897.38;;;14.18;100.00
20612;BME280;10465;42.686;23.364;2023-05-23T05:56:25;94892.38;;;14.37;100.00
20612;BME280;10465;42.686;23.364;2023-05-23T05:58:52;94910.88;;;14.54;99.94
20612;BME280;10465;42.686;23.364;2023-05-23T06:01:17;94913.91;;;14.65;98.94
20612;BME280;10465;42.686;23.364;2023-05-23T06:03:43;94893.06;;;14.67;98.42
20612;BME280;10465;42.686;23.364;2023-05-23T06:06:08;94918.84;;;14.88;98.34
20612;BME280;10465;42.686;23.364;2023-05-23T06:08:34;94913.75;;;14.95;97.53
20612;BME280;10465;42.686;23.364;2023-05-23T06:11:00;94921.53;;;15.00;97.16
20612;BME280;10465;42.686;23.364;2023-05-23T06:13:26;94899.44;;;14.87;96.54
20612;BME280;10465;42.686;23.364;2023-05-23T06:15:51;94920.97;;;15.06;97.18
20612;BME280;10465;42.686;23.364;2023-05-23T06:18:18;94914.09;;;15.18;96.72
20612;BME280;10465;42.686;23.364;2023-05-23T06:20:43;94918.13;;;15.24;96.50
20612;BME280;10465;42.686;23.364;2023-05-23T06:23:09;94914.34;;;15.25;96.79
20612;BME280;10465;42.686;23.364;2023-05-23T06:25:34;94896.34;;;15.22;96.64
20612;BME280;10465;42.686;23.364;2023-05-23T06:28:00;94908.78;;;15.30;96.76
20612;BME280;10465;42.686;23.364;2023-05-23T06:30:25;94932.91;;;15.46;96.38
20612;BME280;10465;42.686;23.364;2023-05-23T06:32:51;94911.91;;;15.44;96.79
20612;BME280;10465;42.686;23.364;2023-05-23T06:35:16;94923.88;;;15.63;95.57
20612;BME280;10465;42.686;23.364;2023-05-23T06:37:42;94876.78;;;15.30;95.57
20612;BME280;10465;42.686;23.364;2023-05-23T06:40:11;94893.34;;;15.48;95.58
20612;BME280;10465;42.686;23.364;2023-05-23T06:42:37;94920.81;;;15.73;94.86
20612;BME280;10465;42.686;23.364;2023-05-23T06:45:03;94921.56;;;15.73;94.25
20612;BME280;10465;42.686;23.364;2023-05-23T06:47:29;94918.13;;;15.85;94.12
20612;BME280;10465;42.686;23.364;2023-05-23T06:49:54;94880.22;;;15.67;93.43
20612;BME280;10465;42.686;23.364;2023-05-23T06:52:20;94918.66;;;15.91;93.04
20612;BME280;10465;42.686;23.364;2023-05-23T06:54:45;94893.22;;;15.81;92.87
20612;BME280;10465;42.686;23.364;2023-05-23T06:57:11;94896.19;;;15.92;93.21
20612;BME280;10465;42.686;23.364;2023-05-23T06:59:36;94904.84;;;16.01;93.25
20612;BME280;10465;42.686;23.364;2023-05-23T07:02:03;94904.50;;;16.02;93.79
20612;BME280;10465;42.686;23.364;2023-05-23T07:04:29;94903.38;;;16.03;93.06
20612;BME280;10465;42.686;23.364;2023-05-23T07:06:54;94905.28;;;16.03;93.36
20612;BME280;10465;42.686;23.364;2023-05-23T07:09:22;94888.47;;;16.02;94.26
20612;BME280;10465;42.686;23.364;2023-05-23T07:11:49;94901.03;;;16.14;94.79
20612;BME280;10465;42.686;23.364;2023-05-23T07:14:15;94907.00;;;16.23;94.83
20612;BME280;10465;42.686;23.364;2023-05-23T07:16:42;94898.31;;;16.26;94.21
20612;BME280;10465;42.686;23.364;2023-05-23T07:19:07;94896.94;;;16.32;95.78
20612;BME280;10465;42.686;23.364;2023-05-23T07:21:33;94872.72;;;16.25;96.18
20612;BME280;10465;42.686;23.364;2023-05-23T07:23:58;94854.56;;;16.31;95.67
20612;BME280;10465;42.686;23.364;2023-05-23T07:26:24;94883.63;;;16.48;94.93
20612;BME280;10465;42.686;23.364;2023-05-23T07:28:51;94855.41;;;16.35;93.71
20612;BME280;10465;42.686;23.364;2023-05-23T07:31:17;94875.13;;;16.59;94.60
20612;BME280;10465;42.686;23.364;2023-05-23T07:33:42;94869.25;;;16.69;95.00
20612;BME280;10465;42.686;23.364;2023-05-23T07:36:09;94878.72;;;16.78;94.93
20612;BME280;10465;42.686;23.364;2023-05-23T07:38:35;94864.31;;;16.83;93.55
20612;BME280;10465;42.686;23.364;2023-05-23T07:41:00;94879.78;;;16.90;92.77
20612;BME280;10465;42.686;23.364;2023-05-23T07:43:26;94859.84;;;16.87;92.28
20612;BME280;10465;42.686;23.364;2023-05-23T07:45:51;94864.84;;;17.04;92.29
20612;BME280;10465;42.686;23.364;2023-05-23T07:48:17;94867.31;;;17.13;92.35
20612;BME280;10465;42.686;23.364;2023-05-23T07:50:42;94857.16;;;17.19;92.28
20612;BME280;10465;42.686;23.364;2023-05-23T07:53:08;94835.94;;;17.10;92.45
20612;BME280;10465;42.686;23.364;2023-05-23T07:55:33;94870.41;;;17.47;92.22
20612;BME280;10465;42.686;23.364;2023-05-23T07:57:59;94864.34;;;17.50;92.33
20612;BME280;10465;42.686;23.364;2023-05-23T08:00:25;94868.66;;;17.70;91.43
20612;BME280;10465;42.686;23.364;2023-05-23T08:02:51;94873.84;;;17.79;89.91
20612;BME280;10465;42.686;23.364;2023-05-23T08:05:16;94871.09;;;17.95;89.15
20612;BME280;10465;42.686;23.364;2023-05-23T08:07:45;94860.88;;;18.00;88.35
20612;BME280;10465;42.686;23.364;2023-05-23T08:10:11;94858.75;;;18.10;88.28
20612;BME280;10465;42.686;23.364;2023-05-23T08:12:36;94849.19;;;18.09;87.33
20612;BME280;10465;42.686;23.364;2023-05-23T08:15:03;94867.09;;;18.24;86.92
20612;BME280;10465;42.686;23.364;2023-05-23T08:17:29;94862.91;;;18.26;86.71
20612;BME280;10465;42.686;23.364;2023-05-23T08:19:54;94837.13;;;18.18;86.64
20612;BME280;10465;42.686;23.364;2023-05-23T08:22:20;94854.59;;;18.32;87.10
20612;BME280;10465;42.686;23.364;2023-05-23T08:24:45;94864.25;;;18.56;87.89
20612;BME280;10465;42.686;23.364;2023-05-23T08:27:11;94862.69;;;18.54;88.26
20612;BME280;10465;42.686;23.364;2023-05-23T08:29:36;94860.75;;;18.55;87.82
20612;BME280;10465;42.686;23.364;2023-05-23T08:32:02;94838.16;;;18.52;88.21
20612;BME280;10465;42.686;23.364;2023-05-23T08:34:28;94847.34;;;18.74;88.00
20612;BME280;10465;42.686;23.364;2023-05-23T08:36:53;94859.44;;;18.88;86.52
20612;BME280;10465;42.686;23.364;2023-05-23T08:39:19;94838.31;;;18.83;85.15
20612;BME280;10465;42.686;23.364;2023-05-23T08:41:44;94849.41;;;19.04;85.77
20612;BME280;10465;42.686;23.364;2023-05-23T08:44:12;94847.25;;;19.13;85.84
20612;BME280;10465;42.686;23.364;2023-05-23T08:46:43;94853.84;;;19.19;85.75
20612;BME280;10465;42.686;23.364;2023-05-23T08:49:09;94847.09;;;19.29;85.11
20612;BME280;10465;42.686;23.364;2023-05-23T08:51:36;94837.47;;;19.28;84.66
20612;BME280;10465;42.686;23.364;2023-05-23T08:54:04;94847.25;;;19.40;85.00
20612;BME280;10465;42.686;23.364;2023-05-23T08:56:30;94854.06;;;19.60;83.44
20612;BME280;10465;42.686;23.364;2023-05-23T08:58:57;94855.72;;;19.65;81.72
20612;BME280;10465;42.686;23.364;2023-05-23T09:01:23;94833.03;;;19.62;80.93
20612;BME280;10465;42.686;23.364;2023-05-23T09:03:50;94837.00;;;19.72;78.60
20612;BME280;10465;42.686;23.364;2023-05-23T09:06:16;94836.75;;;19.84;77.61
20612;BME280;10465;42.686;23.364;2023-05-23T09:08:45;94832.72;;;19.97;79.10
20612;BME280;10465;42.686;23.364;2023-05-23T09:11:11;94838.25;;;20.12;78.62
20612;BME280;10465;42.686;23.364;2023-05-23T09:13:39;94836.00;;;20.14;77.33
20612;BME280;10465;42.686;23.364;2023-05-23T09:16:09;94839.25;;;20.30;77.38
20612;BME280;10465;42.686;23.364;2023-05-23T09:18:42;94817.28;;;20.24;75.91
20612;BME280;10465;42.686;23.364;2023-05-23T09:21:09;94826.69;;;20.41;74.52
20612;BME280;10465;42.686;23.364;2023-05-23T09:23:36;94824.63;;;20.65;75.21
20612;BME280;10465;42.686;23.364;2023-05-23T09:26:08;94827.44;;;20.76;75.81
20612;BME280;10465;42.686;23.364;2023-05-23T09:28:36;94821.00;;;20.87;74.14
20612;BME280;10465;42.686;23.364;2023-05-23T09:31:06;94789.47;;;20.84;71.89
20612;BME280;10465;42.686;23.364;2023-05-23T09:33:47;94827.00;;;21.18;70.94
20612;BME280;10465;42.686;23.364;2023-05-23T09:36:13;94817.28;;;20.99;62.76
20612;BME280;10465;42.686;23.364;2023-05-23T09:38:40;94827.50;;;20.86;62.79
20612;BME280;10465;42.686;23.364;2023-05-23T09:41:06;94805.88;;;20.72;59.14
20612;BME280;10465;42.686;23.364;2023-05-23T09:43:32;94824.50;;;20.91;59.19
20612;BME280;10465;42.686;23.364;2023-05-23T09:46:10;94807.66;;;21.02;58.77
20612;BME280;10465;42.686;23.364;2023-05-23T09:48:36;94807.88;;;21.30;57.42
20612;BME280;10465;42.686;23.364;2023-05-23T09:51:06;94816.91;;;21.52;57.98
20612;BME280;10465;42.686;23.364;2023-05-23T09:53:31;94799.50;;;21.35;56.05
20612;BME280;10465;42.686;23.364;2023-05-23T09:56:02;94786.38;;;21.34;55.97
20612;BME280;10465;42.686;23.364;2023-05-23T09:58:28;94815.47;;;21.72;56.07
20612;BME280;10465;42.686;23.364;2023-05-23T10:00:58;94801.66;;;21.81;54.94
20612;BME280;10465;42.686;23.364;2023-05-23T10:03:36;94806.31;;;21.84;53.58
20612;BME280;10465;42.686;23.364;2023-05-23T10:06:40;94801.72;;;21.99;54.01
20612;BME280;10465;42.686;23.364;2023-05-23T10:09:09;94791.38;;;22.05;52.72
20612;BME280;10465;42.686;23.364;2023-05-23T10:14:34;94804.59;;;22.45;49.40
20612;BME280;10465;42.686;23.364;2023-05-23T10:17:35;94797.66;;;22.52;48.60
20612;BME280;10465;42.686;23.364;2023-05-23T10:20:08;94786.88;;;22.44;46.63
20612;BME280;10465;42.686;23.364;2023-05-23T10:22:38;94806.19;;;22.57;45.63
20612;BME280;10465;42.686;23.364;2023-05-23T10:25:04;94798.09;;;22.68;46.06
20612;BME280;10465;42.686;23.364;2023-05-23T10:27:31;94778.41;;;22.64;44.04
20612;BME280;10465;42.686;23.364;2023-05-23T10:30:00;94792.31;;;22.80;44.69
20612;BME280;10465;42.686;23.364;2023-05-23T10:32:26;94776.91;;;22.88;47.16
20612;BME280;10465;42.686;23.364;2023-05-23T10:35:17;94788.09;;;23.01;44.65
20612;BME280;10465;42.686;23.364;2023-05-23T10:40:21;94785.00;;;23.13;44.37
20612;BME280;10465;42.686;23.364;2023-05-23T10:43:02;94782.72;;;23.22;44.80
20612;BME280;10465;42.686;23.364;2023-05-23T10:45:38;94784.59;;;23.32;44.81
20612;BME280;10465;42.686;23.364;2023-05-23T10:48:30;94775.38;;;23.30;44.76
20612;BME280;10465;42.686;23.364;2023-05-23T10:51:10;94767.28;;;23.19;44.49
20612;BME280;10465;42.686;23.364;2023-05-23T10:53:38;94772.69;;;23.15;44.41
20612;BME280;10465;42.686;23.364;2023-05-23T10:56:06;94772.28;;;23.24;44.17
20612;BME280;10465;42.686;23.364;2023-05-23T10:58:32;94769.94;;;23.37;42.48
20612;BME280;10465;42.686;23.364;2023-05-23T11:01:04;94772.28;;;23.17;41.84
20612;BME280;10465;42.686;23.364;2023-05-23T11:03:32;94771.91;;;23.15;41.56
20612;BME280;10465;42.686;23.364;2023-05-23T11:05:59;94763.78;;;23.33;41.95
20612;BME280;10465;42.686;23.364;2023-05-23T11:08:26;94766.47;;;23.36;42.11
20612;BME280;10465;42.686;23.364;2023-05-23T11:11:02;94753.38;;;23.31;40.94
20612;BME280;10465;42.686;23.364;2023-05-23T11:13:53;94767.22;;;23.40;40.52
20612;BME280;10465;42.686;23.364;2023-05-23T11:16:29;94747.91;;;23.45;40.33
20612;BME280;10465;42.686;23.364;2023-05-23T11:21:58;94754.06;;;23.67;41.52
20612;BME280;10465;42.686;23.364;2023-05-23T11:27:14;94740.13;;;23.80;38.91
20612;BME280;10465;42.686;23.364;2023-05-23T11:29:40;94735.91;;;23.79;38.59
20612;BME280;10465;42.686;23.364;2023-05-23T11:32:12;94726.97;;;23.82;39.82
20612;BME280;10465;42.686;23.364;2023-05-23T11:34:38;94750.50;;;23.96;38.20
20612;BME280;10465;42.686;23.364;2023-05-23T11:37:05;94738.47;;;24.04;38.85
20612;BME280;10465;42.686;23.364;2023-05-23T11:39:30;94743.03;;;24.14;38.69
20612;BME280;10465;42.686;23.364;2023-05-23T11:42:02;94737.63;;;24.17;38.70
20612;BME280;10465;42.686;23.364;2023-05-23T11:44:28;94746.47;;;24.25;38.88
20612;BME280;10465;42.686;23.364;2023-05-23T11:47:02;94749.91;;;24.29;39.45
20612;BME280;10465;42.686;23.364;2023-05-23T11:49:29;94728.03;;;24.06;39.97
20612;BME280;10465;42.686;23.364;2023-05-23T11:51:55;94724.13;;;24.10;39.31
20612;BME280;10465;42.686;23.364;2023-05-23T11:54:26;94735.66;;;24.22;38.49
20612;BME280;10465;42.686;23.364;2023-05-23T11:56:53;94725.94;;;24.35;38.92
20612;BME280;10465;42.686;23.364;2023-05-23T11:59:20;94729.78;;;24.41;38.33
20612;BME280;10465;42.686;23.364;2023-05-23T12:01:46;94720.13;;;24.44;40.07
20612;BME280;10465;42.686;23.364;2023-05-23T12:04:11;94696.09;;;24.49;39.39
20612;BME280;10465;42.686;23.364;2023-05-23T12:06:38;94715.59;;;24.75;38.80
20612;BME280;10465;42.686;23.364;2023-05-23T12:09:05;94715.75;;;24.57;36.90
20612;BME280;10465;42.686;23.364;2023-05-23T12:11:36;94713.16;;;24.42;38.02
20612;BME280;10465;42.686;23.364;2023-05-23T12:14:01;94712.72;;;24.51;37.01
20612;BME280;10465;42.686;23.364;2023-05-23T12:16:31;94717.44;;;24.40;36.98
20612;BME280;10465;42.686;23.364;2023-05-23T12:18:59;94701.97;;;24.40;37.62
20612;BME280;10465;42.686;23.364;2023-05-23T12:21:26;94711.13;;;24.54;37.75
20612;BME280;10465;42.686;23.364;2023-05-23T12:23:51;94701.06;;;24.58;37.00
20612;BME280;10465;42.686;23.364;2023-05-23T12:26:18;94688.28;;;24.58;37.43
20612;BME280;10465;42.686;23.364;2023-05-23T12:28:44;94675.19;;;24.53;38.00
20612;BME280;10465;42.686;23.364;2023-05-23T12:31:17;94684.03;;;24.61;38.71
20612;BME280;10465;42.686;23.364;2023-05-23T12:33:44;94680.53;;;24.64;38.23
20612;BME280;10465;42.686;23.364;2023-05-23T12:36:12;94685.19;;;24.63;38.48
20612;BME280;10465;42.686;23.364;2023-05-23T12:38:38;94656.03;;;24.30;37.82
20612;BME280;10465;42.686;23.364;2023-05-23T12:41:11;94681.06;;;24.45;38.11
20612;BME280;10465;42.686;23.364;2023-05-23T12:43:40;94677.53;;;24.51;37.53
20612;BME280;10465;42.686;23.364;2023-05-23T12:46:06;94646.34;;;24.32;33.45
20612;BME280;10465;42.686;23.364;2023-05-23T12:48:32;94659.38;;;24.52;33.30
20612;BME280;10465;42.686;23.364;2023-05-23T12:50:58;94675.09;;;24.67;32.40
20612;BME280;10465;42.686;23.364;2023-05-23T12:53:25;94647.63;;;24.69;31.99
20612;BME280;10465;42.686;23.364;2023-05-23T12:55:51;94644.22;;;24.61;34.04
20612;BME280;10465;42.686;23.364;2023-05-23T12:58:16;94657.94;;;24.81;33.30
20612;BME280;10465;42.686;23.364;2023-05-23T13:00:42;94664.50;;;24.84;32.30
20612;BME280;10465;42.686;23.364;2023-05-23T13:03:07;94657.94;;;24.81;30.99
20612;BME280;10465;42.686;23.364;2023-05-23T13:05:33;94659.81;;;24.88;30.71